.
WxDataArchive / Data Records for 2010-07-09
2010-07-08 July 2010 2010-07-10

Data Records for Friday, 09 July 2010

Time	Temp	Chill	HIndex	Humid	Dewpt	 Wind 	HiWind	WindDir	Rain 	Barom 
-----	----	-----	------	-----	-----	------	------	-------	-----	----- 
00:00	73.7	73.7	73.7	96	72.5	0	0	---	0.00	29.939 
00:05	73.7	73.7	73.7	96	72.5	0	0	---	0.00	29.939 
00:10	73.7	73.7	73.7	96	72.5	0	0	---	0.00	29.939 
00:15	73.7	73.7	73.7	96	72.5	0	0	---	0.00	29.945 
00:20	73.7	73.7	73.7	96	72.5	0	0	---	0.00	29.945 
00:25	73.7	73.7	73.7	96	72.5	0	0	---	0.00	29.945 
00:30	73.7	73.7	73.7	96	72.5	0	0	---	0.00	29.939 
00:35	73.9	73.9	73.9	96	72.7	0	0	---	0.00	29.939 
00:40	73.7	73.7	73.7	96	72.5	0	0	---	0.00	29.939 
00:45	73.9	73.9	73.9	96	72.7	0	0	---	0.00	29.938 
00:50	73.9	73.9	73.9	96	72.7	0	0	---	0.00	29.938 
00:55	73.9	73.9	73.9	96	72.7	0	0	---	0.00	29.938 
01:00	74.0	74.0	74.0	96	72.8	0	1	292	0.00	29.939 
01:05	74.0	74.0	74.0	96	72.8	0	1	292	0.00	29.939 
01:10	74.0	74.0	74.0	96	72.8	0	0	---	0.00	29.939 
01:15	74.2	74.2	74.2	96	73.0	0	1	292	0.00	29.933 
01:20	74.2	74.2	74.2	96	73.0	0	1	292	0.00	29.933 
01:25	74.0	74.0	74.0	96	72.8	0	1	292	0.00	29.933 
01:30	74.0	74.0	74.0	96	72.8	0	0	---	0.00	29.934 
01:35	74.0	74.0	74.0	96	72.8	0	0	---	0.00	29.934 
01:40	74.0	74.0	74.0	96	72.8	0	0	---	0.00	29.934 
01:45	74.0	74.0	74.0	96	72.8	0	0	---	0.00	29.933 
01:50	73.9	73.9	73.9	96	72.7	0	0	---	0.00	29.933 
01:55	73.9	73.9	73.9	96	72.7	0	0	---	0.00	29.933 
02:00	73.9	73.9	73.9	96	72.7	0	0	---	0.00	29.930 
02:05	73.9	73.9	73.9	96	72.7	0	0	---	0.00	29.930 
02:10	73.9	73.9	73.9	96	72.7	0	0	---	0.00	29.930 
02:15	73.9	73.9	73.9	96	72.7	0	0	---	0.00	29.929 
02:20	73.9	73.9	73.9	96	72.7	0	0	---	0.00	29.929 
02:25	73.9	73.9	73.9	96	72.7	0	0	---	0.00	29.929 
02:30	74.0	74.0	74.0	96	72.8	0	0	---	0.00	29.929 
02:35	74.0	74.0	74.0	96	72.8	0	0	---	0.00	29.929 
02:40	73.9	73.9	73.9	96	72.7	0	0	---	0.00	29.929 
02:45	73.9	73.9	73.9	96	72.7	0	0	---	0.00	29.926 
02:50	73.9	73.9	73.9	96	72.7	0	1	292	0.00	29.926 
02:55	73.9	73.9	73.9	96	72.7	0	0	---	0.00	29.926 
03:00	73.9	73.9	73.9	96	72.7	0	0	---	0.00	29.922 
03:05	73.9	73.9	73.9	96	72.7	0	1	292	0.00	29.922 
03:10	73.9	73.9	73.9	96	72.7	0	1	292	0.00	29.922 
03:15	73.9	73.9	73.9	96	72.7	0	1	292	0.00	29.932 
03:20	73.7	73.7	73.7	96	72.5	0	2	292	0.00	29.932 
03:25	73.5	73.5	73.5	96	72.3	0	1	292	0.00	29.932 
03:30	73.3	73.3	73.3	96	72.1	0	1	292	0.00	29.931 
03:35	73.3	73.3	73.3	96	72.1	0	1	292	0.00	29.931 
03:40	73.2	73.2	73.2	96	72.0	0	1	292	0.00	29.931 
03:45	73.2	73.2	73.2	96	72.0	0	1	292	0.00	29.931 
03:50	73.2	73.2	73.2	96	72.0	0	2	292	0.00	29.931 
03:55	73.0	73.0	73.0	96	71.8	0	1	292	0.00	29.931 
04:00	73.0	73.0	73.0	96	71.8	0	1	292	0.00	29.921 
04:05	72.8	72.8	72.8	96	71.6	0	1	292	0.00	29.921 
04:10	72.8	72.8	72.8	96	71.6	0	1	292	0.00	29.921 
04:15	72.7	72.7	72.7	96	71.5	0	1	292	0.00	29.929 
04:20	72.7	72.7	72.7	96	71.5	0	0	---	0.00	29.929 
04:25	72.5	72.5	72.5	96	71.3	0	0	---	0.00	29.929 
04:30	72.3	72.3	72.3	96	71.1	0	0	---	0.00	29.920 
04:35	72.3	72.3	72.3	96	71.1	0	1	292	0.00	29.920 
04:40	72.1	72.1	72.1	96	70.9	0	1	292	0.00	29.920 
04:45	72.1	72.1	72.1	96	70.9	0	0	---	0.00	29.928 
04:50	72.0	72.0	72.0	96	70.8	0	1	292	0.00	29.928 
04:55	72.0	72.0	72.0	96	70.8	0	0	---	0.00	29.928 
05:00	72.0	72.0	72.0	96	70.8	0	0	---	0.00	29.919 
05:05	72.0	72.0	72.0	96	70.8	0	0	---	0.00	29.919 
05:10	71.8	71.8	71.8	96	70.6	0	0	---	0.00	29.919 
05:15	71.8	71.8	71.8	96	70.6	0	0	---	0.00	29.925 
05:20	71.8	71.8	71.8	96	70.6	0	0	---	0.00	29.925 
05:25	71.8	71.8	71.8	96	70.6	0	0	---	0.00	29.925 
05:30	71.8	71.8	71.8	96	70.6	0	1	292	0.00	29.932 
05:35	71.8	71.8	71.8	96	70.6	0	1	292	0.00	29.932 
05:40	71.8	71.8	71.8	96	70.6	0	1	292	0.00	29.932 
05:45	71.8	71.8	71.8	96	70.6	0	1	292	0.00	29.934 
05:50	71.6	71.6	71.6	96	70.4	0	1	292	0.00	29.934 
05:55	71.6	71.6	71.6	96	70.4	0	1	292	0.00	29.934 
06:00	71.6	71.6	71.6	96	70.4	0	2	292	0.00	29.937 
06:05	71.6	71.6	71.6	96	70.4	0	1	292	0.00	29.937 
06:10	71.5	71.5	71.5	96	70.3	0	1	292	0.01	29.937 
06:15	71.5	71.5	71.5	96	70.3	0	0	---	0.00	29.931 
06:20	71.3	71.3	71.3	96	70.1	0	1	292	0.00	29.931 
06:25	71.3	71.3	71.3	96	70.1	0	0	---	0.00	29.931 
06:30	71.3	71.3	71.3	96	70.1	0	0	---	0.00	29.928 
06:35	71.1	71.1	71.1	96	69.9	0	0	---	0.00	29.928 
06:40	71.1	71.1	71.1	96	69.9	0	0	---	0.00	29.928 
06:45	71.1	71.1	71.1	96	69.9	0	0	---	0.00	29.935 
06:50	71.3	71.3	71.3	96	70.1	0	1	292	0.00	29.935 
06:55	71.3	71.3	71.3	96	70.1	0	1	292	0.00	29.935 
07:00	71.3	71.3	71.3	96	70.1	0	0	---	0.00	29.939 
07:05	71.3	71.3	71.3	96	70.1	0	1	292	0.00	29.939 
07:10	71.3	71.3	71.3	96	70.1	0	0	---	0.00	29.939 
07:15	71.5	71.5	71.5	96	70.3	0	0	---	0.00	29.934 
07:20	71.5	71.5	71.5	96	70.3	0	0	---	0.00	29.934 
07:25	71.5	71.5	71.5	96	70.3	0	0	---	0.00	29.934 
07:30	71.6	71.6	71.6	96	70.4	0	0	---	0.00	29.934 
07:35	71.6	71.6	71.6	96	70.4	0	1	292	0.00	29.934 
07:40	71.8	71.8	71.8	96	70.6	0	1	292	0.00	29.934 
07:45	72.0	72.0	72.0	96	70.8	0	1	292	0.00	29.941 
07:50	72.0	72.0	72.0	96	70.8	0	1	292	0.00	29.941 
07:55	72.0	72.0	72.0	96	70.8	0	1	292	0.00	29.941 
08:00	72.1	72.1	72.1	96	70.9	0	1	292	0.00	29.941 
08:05	72.5	72.5	72.5	96	71.3	0	0	---	0.00	29.941 
08:10	72.5	72.5	72.5	96	71.3	0	1	292	0.00	29.941 
08:15	72.8	72.8	72.8	96	71.6	0	2	292	0.00	29.945 
08:20	73.0	73.0	73.0	96	71.8	0	1	292	0.00	29.945 
08:25	73.0	73.0	73.0	95	71.5	0	1	292	0.00	29.945 
08:30	73.2	73.2	73.2	95	71.7	0	1	292	0.00	29.944 
08:35	73.3	73.3	73.3	95	71.8	0	0	---	0.00	29.944 
08:40	73.3	73.3	73.3	94	71.5	0	1	292	0.00	29.944 
08:45	73.5	73.5	73.5	94	71.7	0	0	---	0.00	29.944 
08:50	73.5	73.5	73.5	94	71.7	0	0	---	0.00	29.944 
08:55	73.5	73.5	73.5	94	71.7	0	0	---	0.00	29.944 
09:00	73.7	73.7	73.7	93	71.5	0	0	---	0.00	29.939 
09:05	73.7	73.7	73.7	93	71.5	0	1	292	0.00	29.939 
09:10	73.7	73.7	73.7	93	71.5	0	1	292	0.00	29.939 
09:15	73.7	73.7	73.7	92	71.2	0	2	292	0.00	29.937 
09:20	73.7	73.7	73.7	92	71.2	0	3	292	0.00	29.937 
09:25	73.7	73.7	73.7	92	71.2	0	3	292	0.00	29.937 
09:30	73.5	73.5	73.5	92	71.0	0	2	292	0.00	29.935 
09:35	73.3	73.3	73.3	92	70.8	0	1	292	0.00	29.935 
09:40	73.3	73.3	73.3	91	70.5	0	1	292	0.00	29.935 
09:45	73.3	73.3	73.3	91	70.5	0	1	292	0.00	29.932 
09:50	73.3	73.3	73.3	91	70.5	0	2	292	0.00	29.932 
09:55	73.3	73.3	73.3	91	70.5	1	2	292	0.00	29.932 
10:00	73.3	73.3	73.3	91	70.5	0	1	292	0.00	29.939 
10:05	73.3	73.3	73.3	91	70.5	0	1	292	0.00	29.939 
10:10	73.5	73.5	73.5	91	70.7	0	1	292	0.00	29.939 
10:15	73.5	73.5	73.5	91	70.7	1	2	292	0.00	29.932 
10:20	73.5	73.5	73.5	91	70.7	0	2	292	0.00	29.932 
10:25	73.5	73.5	73.5	91	70.7	0	2	292	0.00	29.932 
10:30	73.7	73.7	73.7	91	70.9	1	3	292	0.00	29.933 
10:35	73.7	73.7	73.7	91	70.9	0	2	292	0.00	29.933 
10:40	73.7	73.7	73.7	90	70.6	1	3	292	0.00	29.933 
10:45	73.9	73.9	73.9	90	70.8	0	2	292	0.00	29.931 
10:50	73.9	73.9	73.9	90	70.8	0	1	292	0.00	29.931 
10:55	74.0	74.0	74.0	90	70.9	0	1	292	0.00	29.931 
11:00	74.2	74.2	74.2	89	70.7	0	1	292	0.00	29.934 
11:05	74.6	74.6	74.6	89	71.1	0	2	292	0.00	29.934 
11:10	75.1	75.1	74.4	89	71.6	0	2	292	0.00	29.934 
11:15	75.3	75.3	75.0	88	71.5	0	2	292	0.00	29.934 
11:20	75.8	75.8	76.0	87	71.6	1	3	292	0.00	29.934 
11:25	76.1	76.1	76.6	86	71.6	0	2	292	0.00	29.934 
11:30	76.1	76.1	76.7	85	71.2	1	3	292	0.00	29.943 
11:35	76.3	76.3	77.1	85	71.4	1	3	292	0.00	29.943 
11:40	76.3	76.3	77.2	84	71.1	0	2	292	0.00	29.943 
11:45	76.1	76.1	76.8	84	70.9	0	1	292	0.00	29.941 
11:50	76.1	76.1	76.7	85	71.2	0	1	315	0.00	29.941 
11:55	76.1	76.1	76.7	85	71.2	0	1	315	0.00	29.941 
12:00	76.8	76.8	77.9	87	72.6	0	1	315	0.00	29.937 
12:05	77.7	77.7	79.8	83	72.1	0	2	315	0.00	29.937 
12:10	78.3	78.3	81.0	83	72.7	0	1	315	0.00	29.937 
12:15	78.3	78.3	80.8	80	71.6	1	2	315	0.00	29.943 
12:20	77.9	77.9	80.1	81	71.6	0	1	315	0.00	29.943 
12:25	77.9	77.9	80.1	81	71.6	1	4	292	0.00	29.943 
12:30	78.1	78.1	80.5	81	71.8	1	3	292	0.00	29.944 
12:35	78.5	78.5	81.3	82	72.5	1	3	270	0.00	29.944 
12:40	78.6	78.6	81.5	81	72.3	1	3	270	0.00	29.944 
12:45	78.6	78.6	81.4	80	71.9	0	3	315	0.00	29.944 
12:50	78.8	78.8	81.7	79	71.7	0	3	112	0.00	29.944 
12:55	79.0	79.0	82.0	78	71.5	1	3	0	0.00	29.944 
13:00	79.0	79.0	81.9	76	70.8	1	3	315	0.00	29.949 
13:05	79.0	79.0	82.0	77	71.2	0	3	315	0.00	29.949 
13:10	79.2	79.2	82.1	74	70.2	2	4	292	0.00	29.949 
13:15	79.2	79.2	82.2	76	71.0	0	3	292	0.00	29.943 
13:20	79.0	79.0	81.6	73	69.6	0	4	22	0.00	29.943 
13:25	79.4	79.4	82.5	75	70.8	0	1	22	0.00	29.943 
13:30	79.9	79.9	83.3	74	70.8	0	2	22	0.00	29.939 
13:35	79.8	79.8	82.7	71	69.5	1	4	292	0.00	29.939 
13:40	80.7	80.7	84.4	72	70.8	1	4	315	0.00	29.939 
13:45	81.4	81.4	85.3	70	70.7	0	1	315	0.00	29.934 
13:50	81.4	81.4	85.0	68	69.8	1	3	315	0.00	29.934 
13:55	81.6	81.6	85.5	69	70.4	1	3	338	0.00	29.934 
14:00	81.2	81.2	84.5	67	69.2	1	3	292	0.00	29.930 
14:05	81.6	81.6	84.7	65	68.7	1	3	292	0.00	29.930 
14:10	81.8	81.8	85.5	67	69.7	1	4	270	0.00	29.930 
14:15	81.6	81.6	85.1	67	69.6	1	2	270	0.00	29.924 
14:20	81.6	81.6	84.9	66	69.1	1	3	270	0.00	29.924 
14:25	81.4	81.4	85.0	68	69.8	0	2	270	0.00	29.924 
14:30	81.2	81.2	84.3	66	68.7	1	3	315	0.00	29.925 
14:35	81.2	81.2	84.1	65	68.3	2	4	315	0.00	29.925 
14:40	82.0	82.0	85.4	65	69.0	1	4	292	0.00	29.925 
14:45	82.0	82.0	85.2	64	68.6	1	4	292	0.00	29.923 
14:50	81.8	81.8	85.3	66	69.3	0	3	292	0.00	29.923 
14:55	81.6	81.6	84.6	64	68.2	1	3	292	0.00	29.923 
15:00	81.2	81.2	84.3	66	68.7	0	2	292	0.00	29.922 
15:05	81.4	81.4	84.4	65	68.5	0	3	292	0.00	29.922 
15:10	82.0	82.0	85.4	65	69.0	0	2	292	0.00	29.922 
15:15	82.0	82.0	85.4	65	69.0	1	4	292	0.00	29.920 
15:20	81.8	81.8	84.9	64	68.4	1	4	292	0.00	29.920 
15:25	82.0	82.0	85.4	65	69.0	1	3	292	0.00	29.920 
15:30	82.4	82.4	85.8	64	69.0	1	3	292	0.00	29.913 
15:35	82.6	82.6	86.4	65	69.6	0	3	315	0.00	29.913 
15:40	82.8	82.8	87.2	67	70.7	0	2	112	0.00	29.913 
15:45	83.4	83.4	87.0	62	69.0	1	2	90	0.00	29.912 
15:50	83.4	83.4	87.3	63	69.5	1	3	315	0.00	29.912 
15:55	83.4	83.4	87.8	65	70.4	1	3	315	0.00	29.912 
16:00	83.6	83.6	87.4	62	69.2	1	3	292	0.00	29.909 
16:05	83.8	83.8	88.0	63	69.8	0	2	292	0.00	29.909 
16:10	83.2	83.2	86.7	62	68.8	1	5	112	0.00	29.909 
16:15	82.4	82.4	85.4	62	68.0	0	2	292	0.00	29.911 
16:20	81.6	81.6	84.7	65	68.7	0	2	292	0.00	29.911 
16:25	81.8	81.8	85.1	65	68.9	0	2	338	0.00	29.911 
16:30	82.2	82.2	85.7	65	69.2	0	1	338	0.00	29.909 
16:35	82.6	82.6	86.4	65	69.6	0	3	338	0.00	29.909 
16:40	82.6	82.6	85.3	60	67.3	0	3	292	0.00	29.909 
16:45	82.2	82.2	84.9	61	67.4	1	4	90	0.00	29.906 
16:50	82.8	82.8	86.1	62	68.4	0	2	248	0.00	29.906 
16:55	83.4	83.4	86.3	59	67.5	1	2	248	0.00	29.906 
17:00	83.8	83.8	86.7	58	67.4	1	5	270	0.00	29.899 
17:05	84.3	84.3	87.5	58	67.9	0	3	270	0.00	29.899 
17:10	84.7	84.7	87.9	57	67.7	1	3	315	0.00	29.899 
17:15	84.7	84.7	87.9	57	67.7	0	2	135	0.00	29.894 
17:20	84.5	84.5	87.3	56	67.0	0	2	315	0.00	29.894 
17:25	84.7	84.7	87.9	57	67.7	0	2	315	0.00	29.894 
17:30	85.1	85.1	87.9	55	67.1	0	1	315	0.00	29.893 
17:35	85.3	85.3	88.0	54	66.7	0	3	315	0.00	29.893 
17:40	85.3	85.3	87.7	53	66.2	1	5	135	0.00	29.893 
17:45	85.3	85.3	87.4	52	65.6	0	6	112	0.00	29.893 
17:50	84.9	84.9	87.1	53	65.8	0	4	270	0.00	29.893 
17:55	84.9	84.9	86.6	51	64.7	0	3	270	0.00	29.893 
18:00	84.7	84.7	86.8	53	65.6	1	4	158	0.00	29.888 
18:05	84.5	84.5	86.7	54	66.0	0	3	22	0.00	29.888 
18:10	84.3	84.3	86.2	53	65.3	0	3	112	0.00	29.888 
18:15	84.3	84.3	85.7	51	64.2	1	3	112	0.00	29.892 
18:20	84.1	84.1	85.7	52	64.5	0	2	112	0.00	29.892 
18:25	83.8	83.8	85.3	52	64.3	0	2	112	0.00	29.892 
18:30	83.4	83.4	85.4	55	65.5	0	2	112	0.00	29.894 
18:35	82.6	82.6	84.1	54	64.2	0	2	112	0.00	29.894 
18:40	82.2	82.2	84.2	57	65.4	0	2	315	0.00	29.894 
18:45	82.2	82.2	84.3	58	65.9	0	3	338	0.00	29.896 
18:50	82.0	82.0	84.2	59	66.2	0	3	270	0.00	29.896 
18:55	82.2	82.2	84.7	60	66.9	0	3	270	0.00	29.896 
19:00	82.2	82.2	84.5	59	66.4	0	5	112	0.00	29.897 
19:05	82.2	82.2	84.5	59	66.4	0	2	112	0.00	29.897 
19:10	82.0	82.0	84.2	59	66.2	0	3	112	0.00	29.897 
19:15	82.0	82.0	84.1	58	65.7	0	1	135	0.00	29.898 
19:20	82.0	82.0	84.2	59	66.2	0	2	45	0.00	29.898 
19:25	81.8	81.8	83.8	58	65.6	0	2	338	0.00	29.898 
19:30	81.8	81.8	84.1	60	66.5	0	1	338	0.00	29.899 
19:35	82.0	82.0	84.4	60	66.7	0	2	338	0.00	29.899 
19:40	82.0	82.0	84.1	58	65.7	0	3	338	0.00	29.899 
19:45	81.8	81.8	84.0	59	66.0	0	2	338	0.00	29.902 
19:50	81.6	81.6	83.9	60	66.3	0	2	338	0.00	29.902 
19:55	81.2	81.2	83.5	61	66.4	0	1	338	0.00	29.902 
20:00	81.1	81.1	83.5	62	66.8	0	1	338	0.00	29.912 
20:05	80.9	80.9	83.1	61	66.2	0	1	338	0.00	29.912 
20:10	80.7	80.7	82.7	60	65.5	0	1	338	0.00	29.912 
20:15	80.5	80.5	82.4	60	65.3	0	0	---	0.00	29.913 
20:20	80.3	80.3	82.3	61	65.6	0	0	---	0.00	29.913 
20:25	79.9	79.9	81.9	62	65.7	0	0	---	0.00	29.913 
20:30	79.8	79.8	81.8	62	65.6	0	0	---	0.00	29.914 
20:35	79.4	79.4	81.4	63	65.7	0	0	---	0.00	29.914 
20:40	79.2	79.2	81.2	64	65.9	0	0	---	0.00	29.914 
20:45	79.0	79.0	81.0	64	65.8	0	0	---	0.00	29.917 
20:50	78.8	78.8	80.8	65	66.0	0	0	---	0.00	29.917 
20:55	78.6	78.6	80.6	65	65.8	0	0	---	0.00	29.917 
21:00	78.5	78.5	80.4	65	65.7	0	0	---	0.00	29.921 
21:05	78.3	78.3	80.2	66	66.0	0	0	---	0.00	29.921 
21:10	78.1	78.1	80.0	66	65.8	0	0	---	0.00	29.921 
21:15	77.9	77.9	79.8	67	66.0	0	0	---	0.00	29.926 
21:20	77.7	77.7	79.6	67	65.8	0	0	---	0.00	29.926 
21:25	77.6	77.6	79.5	68	66.2	0	0	---	0.00	29.926 
21:30	77.4	77.4	79.2	68	66.0	0	0	---	0.00	29.929 
21:35	77.2	77.2	79.0	69	66.2	0	1	338	0.00	29.929 
21:40	76.8	76.8	78.6	69	65.8	0	0	---	0.00	29.929 
21:45	76.7	76.7	78.4	69	65.7	0	0	---	0.00	29.932 
21:50	76.5	76.5	78.2	70	66.0	0	0	---	0.00	29.932 
21:55	76.3	76.3	77.9	71	66.2	0	0	---	0.00	29.932 
22:00	76.1	76.1	77.7	71	66.0	0	0	---	0.00	29.937 
22:05	76.0	76.0	77.6	71	65.9	0	0	---	0.00	29.937 
22:10	75.6	75.6	77.1	72	65.9	0	0	---	0.00	29.937 
22:15	75.4	75.4	76.8	73	66.1	0	0	---	0.00	29.946 
22:20	75.1	75.1	76.5	73	65.8	0	0	---	0.00	29.946 
22:25	74.9	74.9	74.9	74	66.0	0	0	---	0.00	29.946 
22:30	74.7	74.7	74.7	76	66.6	0	0	---	0.00	29.951 
22:35	74.4	74.4	74.4	76	66.3	0	0	---	0.00	29.951 
22:40	74.2	74.2	74.2	77	66.5	0	0	---	0.00	29.951 
22:45	74.0	74.0	74.0	77	66.3	0	0	---	0.00	29.961 
22:50	74.0	74.0	74.0	77	66.3	0	0	---	0.00	29.961 
22:55	73.7	73.7	73.7	77	66.0	0	0	---	0.00	29.961 
23:00	73.5	73.5	73.5	77	65.8	0	0	---	0.00	29.964 
23:05	73.3	73.3	73.3	77	65.6	0	0	---	0.00	29.964 
23:10	73.2	73.2	73.2	78	65.9	0	0	---	0.00	29.964 
23:15	73.0	73.0	73.0	78	65.7	0	0	---	0.00	29.966 
23:20	72.8	72.8	72.8	78	65.5	0	0	---	0.00	29.966 
23:25	72.5	72.5	72.5	78	65.2	0	0	---	0.00	29.966 
23:30	72.3	72.3	72.3	79	65.4	0	0	---	0.00	29.967 
23:35	72.1	72.1	72.1	80	65.6	0	0	---	0.00	29.967 
23:40	72.0	72.0	72.0	81	65.8	0	0	---	0.00	29.967 
23:45	71.8	71.8	71.8	81	65.6	0	0	---	0.00	29.966 
23:50	71.5	71.5	71.5	82	65.7	0	0	---	0.00	29.966 
23:55	71.3	71.3	71.3	82	65.5	0	0	---	0.00	29.966 

CoCoRaHS
IN-AL-39
A2 Web Hosting
Creative Commons License
GoDaddy
search engine by freefind advanced

loaded 2018-11-15 17:50:23 • last modified 2010-11-18 10:43:29
Privacy PolicyDisclaimer
• wx.awcolley.com is powered by PmWiki v.2002016 •
• all content (unless otherwise noted) © 2018 A W Colley